Terminal Aerodrome Forecast
Issued by NWS

Home | Current Version | Previous Version | Text Only | Print | Product List | Glossary On
Versions: 1 2 3 4 5 6 7 8 9 10 11 12 13 14 15 16 17
000
FTUS44 KHGX 271738
TAFSGR
TAF
KSGR 271738Z 2718/2818 03006KT P6SM VCSH SCT030 BKN120 OVC250
     FM280200 04005KT P6SM VCSH FEW015 SCT030 BKN120
      TEMPO 2802/2805 SHRA BKN028 OVC100
     FM280600 VRB03KT P6SM BKN250
     FM281100 02004KT P6SM VCSH SCT015 BKN250
     FM281700 03006KT P6SM VCTS BKN035CB OVC100=

USA.gov is the U.S. government's official web portal to all federal, state and local government web resources and services.